sensor_id;sensor_type;location;lat;lon;timestamp;pressure;altitude;pressure_sealevel;temperature;humidity
58622;BME280;44389;51.578;5.456;2023-04-09T00:01:05;102456.53;;;8.46;100.00
58622;BME280;44389;51.578;5.456;2023-04-09T00:03:30;102449.41;;;8.42;100.00
58622;BME280;44389;51.578;5.456;2023-04-09T00:05:56;102452.75;;;8.41;100.00
58622;BME280;44389;51.578;5.456;2023-04-09T00:08:21;102451.88;;;8.40;100.00
58622;BME280;44389;51.578;5.456;2023-04-09T00:10:50;102440.50;;;8.37;100.00
58622;BME280;44389;51.578;5.456;2023-04-09T00:13:15;102451.66;;;8.37;100.00
58622;BME280;44389;51.578;5.456;2023-04-09T00:15:46;102439.59;;;8.36;100.00
58622;BME280;44389;51.578;5.456;2023-04-09T00:18:12;102443.78;;;8.34;100.00
58622;BME280;44389;51.578;5.456;2023-04-09T00:20:38;102440.50;;;8.37;100.00
58622;BME280;44389;51.578;5.456;2023-04-09T00:23:03;102430.03;;;8.34;100.00
58622;BME280;44389;51.578;5.456;2023-04-09T00:25:29;102433.41;;;8.33;100.00
58622;BME280;44389;51.578;5.456;2023-04-09T00:27:55;102437.53;;;8.31;100.00
58622;BME280;44389;51.578;5.456;2023-04-09T00:30:20;102432.50;;;8.32;100.00
58622;BME280;44389;51.578;5.456;2023-04-09T00:32:46;102437.63;;;8.32;100.00
58622;BME280;44389;51.578;5.456;2023-04-09T00:35:11;102440.91;;;8.30;100.00
58622;BME280;44389;51.578;5.456;2023-04-09T00:37:36;102445.25;;;8.31;100.00
58622;BME280;44389;51.578;5.456;2023-04-09T00:40:02;102433.19;;;8.30;100.00
58622;BME280;44389;51.578;5.456;2023-04-09T00:42:35;102433.88;;;8.27;100.00
58622;BME280;44389;51.578;5.456;2023-04-09T00:45:01;102430.44;;;8.27;100.00
58622;BME280;44389;51.578;5.456;2023-04-09T00:47:28;102427.78;;;8.25;100.00
58622;BME280;44389;51.578;5.456;2023-04-09T00:49:54;102430.34;;;8.25;100.00
58622;BME280;44389;51.578;5.456;2023-04-09T00:52:20;102431.22;;;8.26;100.00
58622;BME280;44389;51.578;5.456;2023-04-09T00:54:47;102438.06;;;8.25;100.00
58622;BME280;44389;51.578;5.456;2023-04-09T00:57:13;102426.28;;;8.29;100.00
58622;BME280;44389;51.578;5.456;2023-04-09T00:59:39;102426.09;;;8.26;100.00
58622;BME280;44389;51.578;5.456;2023-04-09T01:02:05;102423.59;;;8.27;100.00
58622;BME280;44389;51.578;5.456;2023-04-09T01:04:30;102429.66;;;8.28;100.00
58622;BME280;44389;51.578;5.456;2023-04-09T01:09:50;102425.22;;;8.25;100.00
58622;BME280;44389;51.578;5.456;2023-04-09T01:12:35;102421.94;;;8.28;100.00
58622;BME280;44389;51.578;5.456;2023-04-09T01:15:12;102416.59;;;8.24;100.00
58622;BME280;44389;51.578;5.456;2023-04-09T01:17:45;102414.13;;;8.26;100.00
58622;BME280;44389;51.578;5.456;2023-04-09T01:20:18;102411.28;;;8.21;100.00
58622;BME280;44389;51.578;5.456;2023-04-09T01:28:18;102409.50;;;8.20;100.00
58622;BME280;44389;51.578;5.456;2023-04-09T01:30:49;102407.69;;;8.19;100.00
58622;BME280;44389;51.578;5.456;2023-04-09T01:33:17;102410.28;;;8.19;100.00
58622;BME280;44389;51.578;5.456;2023-04-09T01:35:45;102411.97;;;8.19;100.00
58622;BME280;44389;51.578;5.456;2023-04-09T01:38:13;102405.13;;;8.19;100.00
58622;BME280;44389;51.578;5.456;2023-04-09T01:40:38;102403.34;;;8.18;100.00
58622;BME280;44389;51.578;5.456;2023-04-09T01:43:05;102405.13;;;8.19;100.00
58622;BME280;44389;51.578;5.456;2023-04-09T01:45:33;102404.94;;;8.16;100.00
58622;BME280;44389;51.578;5.456;2023-04-09T01:47:59;102404.94;;;8.16;100.00
58622;BME280;44389;51.578;5.456;2023-04-09T01:50:25;102403.25;;;8.17;100.00
58622;BME280;44389;51.578;5.456;2023-04-09T01:52:50;102410.00;;;8.15;100.00
58622;BME280;44389;51.578;5.456;2023-04-09T01:55:16;102406.50;;;8.14;100.00
58622;BME280;44389;51.578;5.456;2023-04-09T01:57:41;102403.94;;;8.14;100.00
58622;BME280;44389;51.578;5.456;2023-04-09T02:00:07;102402.97;;;8.12;100.00
58622;BME280;44389;51.578;5.456;2023-04-09T02:02:43;102405.53;;;8.12;100.00
58622;BME280;44389;51.578;5.456;2023-04-09T02:05:11;102403.66;;;8.10;100.00
58622;BME280;44389;51.578;5.456;2023-04-09T02:07:43;102398.53;;;8.10;100.00
58622;BME280;44389;51.578;5.456;2023-04-09T02:10:10;102402.84;;;8.11;100.00
58622;BME280;44389;51.578;5.456;2023-04-09T02:12:39;102407.91;;;8.09;100.00
58622;BME280;44389;51.578;5.456;2023-04-09T02:15:07;102400.97;;;8.08;100.00
58622;BME280;44389;51.578;5.456;2023-04-09T02:17:32;102397.72;;;8.11;100.00
58622;BME280;44389;51.578;5.456;2023-04-09T02:19:57;102399.59;;;8.13;100.00
58622;BME280;44389;51.578;5.456;2023-04-09T02:22:23;102398.03;;;8.15;100.00
58622;BME280;44389;51.578;5.456;2023-04-09T02:24:48;102392.81;;;8.14;100.00
58622;BME280;44389;51.578;5.456;2023-04-09T02:27:13;102389.31;;;8.13;100.00
58622;BME280;44389;51.578;5.456;2023-04-09T02:29:39;102396.06;;;8.11;100.00
58622;BME280;44389;51.578;5.456;2023-04-09T02:32:05;102395.06;;;8.09;100.00
58622;BME280;44389;51.578;5.456;2023-04-09T02:34:30;102388.94;;;8.07;100.00
58622;BME280;44389;51.578;5.456;2023-04-09T02:36:56;102400.09;;;8.07;100.00
58622;BME280;44389;51.578;5.456;2023-04-09T02:39:21;102385.56;;;8.08;100.00
58622;BME280;44389;51.578;5.456;2023-04-09T02:41:46;102384.69;;;8.07;100.00
58622;BME280;44389;51.578;5.456;2023-04-09T02:44:12;102390.63;;;8.06;100.00
58622;BME280;44389;51.578;5.456;2023-04-09T02:46:38;102384.50;;;8.04;100.00
58622;BME280;44389;51.578;5.456;2023-04-09T02:49:03;102387.88;;;8.03;100.00
58622;BME280;44389;51.578;5.456;2023-04-09T02:51:28;102380.25;;;8.05;100.00
58622;BME280;44389;51.578;5.456;2023-04-09T02:53:54;102390.63;;;8.06;100.00
58622;BME280;44389;51.578;5.456;2023-04-09T02:56:19;102377.59;;;8.03;100.00
58622;BME280;44389;51.578;5.456;2023-04-09T02:58:44;102382.63;;;8.02;100.00
58622;BME280;44389;51.578;5.456;2023-04-09T03:01:10;102375.63;;;7.99;100.00
58622;BME280;44389;51.578;5.456;2023-04-09T03:03:35;102379.38;;;8.04;100.00
58622;BME280;44389;51.578;5.456;2023-04-09T03:06:03;102375.72;;;8.01;100.00
58622;BME280;44389;51.578;5.456;2023-04-09T03:08:28;102368.78;;;8.00;100.00
58622;BME280;44389;51.578;5.456;2023-04-09T03:10:53;102371.19;;;7.97;100.00
58622;BME280;44389;51.578;5.456;2023-04-09T03:13:19;102370.34;;;7.98;100.00
58622;BME280;44389;51.578;5.456;2023-04-09T03:15:44;102372.06;;;7.97;100.00
58622;BME280;44389;51.578;5.456;2023-04-09T03:18:10;102380.53;;;7.96;100.00
58622;BME280;44389;51.578;5.456;2023-04-09T03:20:38;102373.94;;;8.00;100.00
58622;BME280;44389;51.578;5.456;2023-04-09T03:23:03;102371.28;;;7.98;100.00
58622;BME280;44389;51.578;5.456;2023-04-09T03:25:28;102366.03;;;7.97;100.00
58622;BME280;44389;51.578;5.456;2023-04-09T03:27:54;102364.94;;;7.93;100.00
58622;BME280;44389;51.578;5.456;2023-04-09T03:30:19;102370.00;;;7.91;100.00
58622;BME280;44389;51.578;5.456;2023-04-09T03:32:45;102363.84;;;7.89;100.00
58622;BME280;44389;51.578;5.456;2023-04-09T03:35:10;102363.75;;;7.88;100.00
58622;BME280;44389;51.578;5.456;2023-04-09T03:37:35;102356.16;;;7.89;100.00
58622;BME280;44389;51.578;5.456;2023-04-09T03:40:01;102357.63;;;7.86;100.00
58622;BME280;44389;51.578;5.456;2023-04-09T03:42:26;102359.31;;;7.85;100.00
58622;BME280;44389;51.578;5.456;2023-04-09T03:44:52;102355.97;;;7.86;100.00
58622;BME280;44389;51.578;5.456;2023-04-09T03:47:18;102351.63;;;7.85;100.00
58622;BME280;44389;51.578;5.456;2023-04-09T03:49:44;102351.63;;;7.85;100.00
58622;BME280;44389;51.578;5.456;2023-04-09T03:52:09;102351.41;;;7.82;100.00
58622;BME280;44389;51.578;5.456;2023-04-09T03:54:34;102351.63;;;7.85;100.00
58622;BME280;44389;51.578;5.456;2023-04-09T03:56:59;102337.59;;;7.80;100.00
58622;BME280;44389;51.578;5.456;2023-04-09T03:59:25;102346.84;;;7.78;100.00
58622;BME280;44389;51.578;5.456;2023-04-09T04:01:50;102351.03;;;7.76;100.00
58622;BME280;44389;51.578;5.456;2023-04-09T04:04:16;102344.09;;;7.75;100.00
58622;BME280;44389;51.578;5.456;2023-04-09T04:06:41;102348.53;;;7.78;100.00
58622;BME280;44389;51.578;5.456;2023-04-09T04:09:06;102355.94;;;7.73;100.00
58622;BME280;44389;51.578;5.456;2023-04-09T04:11:32;102353.19;;;7.70;100.00
58622;BME280;44389;51.578;5.456;2023-04-09T04:13:57;102346.84;;;7.65;100.00
58622;BME280;44389;51.578;5.456;2023-04-09T04:16:22;102349.41;;;7.65;100.00
58622;BME280;44389;51.578;5.456;2023-04-09T04:18:48;102357.50;;;7.57;100.00
58622;BME280;44389;51.578;5.456;2023-04-09T04:21:13;102353.13;;;7.56;100.00
58622;BME280;44389;51.578;5.456;2023-04-09T04:23:39;102356.28;;;7.52;100.00
58622;BME280;44389;51.578;5.456;2023-04-09T04:26:08;102357.06;;;7.51;100.00
58622;BME280;44389;51.578;5.456;2023-04-09T04:28:38;102353.44;;;7.48;100.00
58622;BME280;44389;51.578;5.456;2023-04-09T04:31:08;102352.34;;;7.44;100.00
58622;BME280;44389;51.578;5.456;2023-04-09T04:33:34;102349.69;;;7.43;100.00
58622;BME280;44389;51.578;5.456;2023-04-09T04:38:32;102350.16;;;7.37;100.00
58622;BME280;44389;51.578;5.456;2023-04-09T04:40:58;102349.28;;;7.36;100.00
58622;BME280;44389;51.578;5.456;2023-04-09T04:43:23;102349.72;;;7.31;100.00
58622;BME280;44389;51.578;5.456;2023-04-09T04:45:48;102353.09;;;7.30;100.00
58622;BME280;44389;51.578;5.456;2023-04-09T04:48:14;102350.03;;;7.22;100.00
58622;BME280;44389;51.578;5.456;2023-04-09T04:50:39;102357.38;;;7.17;100.00
58622;BME280;44389;51.578;5.456;2023-04-09T04:53:04;102360.31;;;7.10;100.00
58622;BME280;44389;51.578;5.456;2023-04-09T04:55:30;102355.16;;;6.97;100.00
58622;BME280;44389;51.578;5.456;2023-04-09T04:57:55;102357.09;;;6.87;100.00
58622;BME280;44389;51.578;5.456;2023-04-09T05:00:20;102360.22;;;6.83;100.00
58622;BME280;44389;51.578;5.456;2023-04-09T05:02:46;102354.47;;;6.74;100.00
58622;BME280;44389;51.578;5.456;2023-04-09T05:05:11;102360.50;;;6.63;100.00
58622;BME280;44389;51.578;5.456;2023-04-09T05:07:36;102352.84;;;6.51;100.00
58622;BME280;44389;51.578;5.456;2023-04-09T05:10:01;102351.88;;;6.37;100.00
58622;BME280;44389;51.578;5.456;2023-04-09T05:12:30;102360.56;;;6.27;100.00
58622;BME280;44389;51.578;5.456;2023-04-09T05:14:56;102355.81;;;6.20;100.00
58622;BME280;44389;51.578;5.456;2023-04-09T05:17:21;102349.44;;;6.03;100.00
58622;BME280;44389;51.578;5.456;2023-04-09T05:19:51;102356.97;;;5.89;100.00
58622;BME280;44389;51.578;5.456;2023-04-09T05:22:16;102350.84;;;5.87;100.00
58622;BME280;44389;51.578;5.456;2023-04-09T05:24:42;102347.41;;;5.87;100.00
58622;BME280;44389;51.578;5.456;2023-04-09T05:27:07;102354.75;;;5.82;100.00
58622;BME280;44389;51.578;5.456;2023-04-09T05:29:32;102355.09;;;5.75;100.00
58622;BME280;44389;51.578;5.456;2023-04-09T05:31:58;102354.84;;;5.72;100.00
58622;BME280;44389;51.578;5.456;2023-04-09T05:34:23;102357.28;;;5.70;100.00
58622;BME280;44389;51.578;5.456;2023-04-09T05:36:48;102362.31;;;5.69;100.00
58622;BME280;44389;51.578;5.456;2023-04-09T05:39:14;102358.50;;;5.64;100.00
58622;BME280;44389;51.578;5.456;2023-04-09T05:41:39;102360.97;;;5.62;100.00
58622;BME280;44389;51.578;5.456;2023-04-09T05:44:05;102360.53;;;5.68;100.00
58622;BME280;44389;51.578;5.456;2023-04-09T05:46:31;102354.28;;;5.64;100.00
58622;BME280;44389;51.578;5.456;2023-04-09T05:48:56;102359.28;;;5.63;100.00
58622;BME280;44389;51.578;5.456;2023-04-09T05:51:21;102362.50;;;5.60;100.00
58622;BME280;44389;51.578;5.456;2023-04-09T05:53:47;102358.06;;;5.57;100.00
58622;BME280;44389;51.578;5.456;2023-04-09T05:56:13;102366.75;;;5.59;100.00
58622;BME280;44389;51.578;5.456;2023-04-09T05:58:42;102360.03;;;5.50;100.00
58622;BME280;44389;51.578;5.456;2023-04-09T06:01:07;102362.72;;;5.51;100.00
58622;BME280;44389;51.578;5.456;2023-04-09T06:03:33;102361.63;;;5.48;100.00
58622;BME280;44389;51.578;5.456;2023-04-09T06:05:58;102365.16;;;5.50;100.00
58622;BME280;44389;51.578;5.456;2023-04-09T06:08:23;102366.06;;;5.50;100.00
58622;BME280;44389;51.578;5.456;2023-04-09T06:10:48;102377.53;;;5.55;100.00
58622;BME280;44389;51.578;5.456;2023-04-09T06:13:14;102374.97;;;5.55;100.00
58622;BME280;44389;51.578;5.456;2023-04-09T06:15:40;102373.41;;;5.57;100.00
58622;BME280;44389;51.578;5.456;2023-04-09T06:18:05;102372.75;;;5.60;100.00
58622;BME280;44389;51.578;5.456;2023-04-09T06:20:30;102374.53;;;5.61;100.00
58622;BME280;44389;51.578;5.456;2023-04-09T06:22:56;102373.88;;;5.64;100.00
58622;BME280;44389;51.578;5.456;2023-04-09T06:25:21;102377.88;;;5.72;100.00
58622;BME280;44389;51.578;5.456;2023-04-09T06:27:46;102372.75;;;5.72;100.00
58622;BME280;44389;51.578;5.456;2023-04-09T06:30:12;102372.09;;;5.74;100.00
58622;BME280;44389;51.578;5.456;2023-04-09T06:32:37;102378.31;;;5.78;100.00
58622;BME280;44389;51.578;5.456;2023-04-09T06:35:03;102376.13;;;5.83;100.00
58622;BME280;44389;51.578;5.456;2023-04-09T06:37:28;102379.66;;;5.85;100.00
58622;BME280;44389;51.578;5.456;2023-04-09T06:39:54;102382.56;;;5.89;100.00
58622;BME280;44389;51.578;5.456;2023-04-09T06:42:19;102389.69;;;5.93;100.00
58622;BME280;44389;51.578;5.456;2023-04-09T06:44:45;102393.38;;;5.97;100.00
58622;BME280;44389;51.578;5.456;2023-04-09T06:47:10;102387.97;;;6.04;100.00
58622;BME280;44389;51.578;5.456;2023-04-09T06:49:35;102387.50;;;6.10;100.00
58622;BME280;44389;51.578;5.456;2023-04-09T06:52:02;102386.38;;;6.18;100.00
58622;BME280;44389;51.578;5.456;2023-04-09T06:54:28;102388.81;;;6.29;100.00
58622;BME280;44389;51.578;5.456;2023-04-09T06:56:53;102388.50;;;6.36;100.00
58622;BME280;44389;51.578;5.456;2023-04-09T06:59:18;102388.94;;;6.42;100.00
58622;BME280;44389;51.578;5.456;2023-04-09T07:01:43;102383.81;;;6.42;100.00
58622;BME280;44389;51.578;5.456;2023-04-09T07:04:09;102392.94;;;6.50;100.00
58622;BME280;44389;51.578;5.456;2023-04-09T07:06:34;102396.94;;;6.58;100.00
58622;BME280;44389;51.578;5.456;2023-04-09T07:09:00;102393.56;;;6.71;100.00
58622;BME280;44389;51.578;5.456;2023-04-09T07:11:25;102397.22;;;6.75;100.00
58622;BME280;44389;51.578;5.456;2023-04-09T07:13:50;102388.72;;;6.88;100.00
58622;BME280;44389;51.578;5.456;2023-04-09T07:16:16;102385.81;;;6.95;100.00
58622;BME280;44389;51.578;5.456;2023-04-09T07:18:41;102390.16;;;6.96;100.00
58622;BME280;44389;51.578;5.456;2023-04-09T07:21:06;102395.22;;;7.08;100.00
58622;BME280;44389;51.578;5.456;2023-04-09T07:23:34;102399.59;;;7.09;100.00
58622;BME280;44389;51.578;5.456;2023-04-09T07:26:02;102404.41;;;7.18;100.00
58622;BME280;44389;51.578;5.456;2023-04-09T07:28:27;102399.72;;;7.24;100.00
58622;BME280;44389;51.578;5.456;2023-04-09T07:30:53;102403.56;;;7.43;100.00
58622;BME280;44389;51.578;5.456;2023-04-09T07:33:18;102402.69;;;7.55;100.00
58622;BME280;44389;51.578;5.456;2023-04-09T07:35:43;102404.06;;;7.50;100.00
58622;BME280;44389;51.578;5.456;2023-04-09T07:38:09;102400.66;;;7.63;100.00
58622;BME280;44389;51.578;5.456;2023-04-09T07:40:34;102397.41;;;7.79;100.00
58622;BME280;44389;51.578;5.456;2023-04-09T07:43:01;102393.09;;;7.91;100.00
58622;BME280;44389;51.578;5.456;2023-04-09T07:45:26;102400.19;;;7.96;100.00
58622;BME280;44389;51.578;5.456;2023-04-09T07:47:51;102405.25;;;8.07;100.00
58622;BME280;44389;51.578;5.456;2023-04-09T07:50:17;102401.88;;;8.22;100.00
58622;BME280;44389;51.578;5.456;2023-04-09T07:52:42;102403.53;;;8.35;100.00
58622;BME280;44389;51.578;5.456;2023-04-09T07:55:07;102393.47;;;8.38;100.00
58622;BME280;44389;51.578;5.456;2023-04-09T07:57:33;102391.47;;;8.34;100.00
58622;BME280;44389;51.578;5.456;2023-04-09T07:59:58;102396.25;;;8.28;100.00
58622;BME280;44389;51.578;5.456;2023-04-09T08:02:24;102402.47;;;8.18;100.00
58622;BME280;44389;51.578;5.456;2023-04-09T08:04:49;102398.22;;;8.18;100.00
58622;BME280;44389;51.578;5.456;2023-04-09T08:07:15;102394.88;;;8.33;100.00
58622;BME280;44389;51.578;5.456;2023-04-09T08:09:40;102393.66;;;8.41;100.00
58622;BME280;44389;51.578;5.456;2023-04-09T08:12:06;102394.06;;;8.61;100.00
58622;BME280;44389;51.578;5.456;2023-04-09T08:14:31;102398.31;;;9.02;100.00
58622;BME280;44389;51.578;5.456;2023-04-09T08:16:56;102393.34;;;9.48;100.00
58622;BME280;44389;51.578;5.456;2023-04-09T08:19:22;102409.41;;;9.74;99.38
58622;BME280;44389;51.578;5.456;2023-04-09T08:21:47;102401.97;;;9.79;96.81
58622;BME280;44389;51.578;5.456;2023-04-09T08:24:14;102398.47;;;10.08;96.90
58622;BME280;44389;51.578;5.456;2023-04-09T08:26:40;102396.97;;;10.58;96.24
58622;BME280;44389;51.578;5.456;2023-04-09T08:29:07;102396.88;;;10.57;93.12
58622;BME280;44389;51.578;5.456;2023-04-09T08:31:33;102389.19;;;10.73;93.19
58622;BME280;44389;51.578;5.456;2023-04-09T08:33:58;102400.72;;;10.80;93.05
58622;BME280;44389;51.578;5.456;2023-04-09T08:36:24;102394.19;;;10.86;93.69
58622;BME280;44389;51.578;5.456;2023-04-09T08:38:50;102396.91;;;10.90;93.10
58622;BME280;44389;51.578;5.456;2023-04-09T08:41:18;102393.69;;;10.77;92.16
58622;BME280;44389;51.578;5.456;2023-04-09T08:43:45;102393.47;;;11.06;96.55
58622;BME280;44389;51.578;5.456;2023-04-09T08:46:10;102386.19;;;10.65;94.06
58622;BME280;44389;51.578;5.456;2023-04-09T08:48:37;102384.94;;;10.59;94.04
58622;BME280;44389;51.578;5.456;2023-04-09T08:51:06;102387.22;;;10.52;92.79
58622;BME280;44389;51.578;5.456;2023-04-09T08:53:31;102385.47;;;10.68;94.27
58622;BME280;44389;51.578;5.456;2023-04-09T08:55:57;102386.81;;;10.78;93.91
58622;BME280;44389;51.578;5.456;2023-04-09T08:58:24;102384.88;;;11.40;94.81
58622;BME280;44389;51.578;5.456;2023-04-09T09:00:49;102382.38;;;11.94;90.45
58622;BME280;44389;51.578;5.456;2023-04-09T09:03:14;102381.31;;;12.25;87.19
58622;BME280;44389;51.578;5.456;2023-04-09T09:05:44;102387.50;;;12.46;87.23
58622;BME280;44389;51.578;5.456;2023-04-09T09:08:22;102384.13;;;12.29;84.70
58622;BME280;44389;51.578;5.456;2023-04-09T09:10:47;102387.50;;;12.28;84.93
58622;BME280;44389;51.578;5.456;2023-04-09T09:13:26;102386.31;;;12.40;86.39
58622;BME280;44389;51.578;5.456;2023-04-09T09:15:54;102381.47;;;12.10;84.51
58622;BME280;44389;51.578;5.456;2023-04-09T09:18:41;102389.88;;;12.24;86.96
58622;BME280;44389;51.578;5.456;2023-04-09T09:21:15;102381.91;;;12.01;84.20
58622;BME280;44389;51.578;5.456;2023-04-09T09:23:40;102373.06;;;12.14;84.32
58622;BME280;44389;51.578;5.456;2023-04-09T09:26:13;102380.44;;;12.24;83.39
58622;BME280;44389;51.578;5.456;2023-04-09T09:28:40;102381.47;;;12.65;84.01
58622;BME280;44389;51.578;5.456;2023-04-09T09:31:10;102376.31;;;12.85;81.52
58622;BME280;44389;51.578;5.456;2023-04-09T09:33:36;102376.53;;;12.52;79.55
58622;BME280;44389;51.578;5.456;2023-04-09T09:36:02;102372.41;;;12.75;81.80
58622;BME280;44389;51.578;5.456;2023-04-09T09:38:30;102375.50;;;12.86;78.27
58622;BME280;44389;51.578;5.456;2023-04-09T09:40:56;102373.22;;;12.74;78.34
58622;BME280;44389;51.578;5.456;2023-04-09T09:43:23;102365.06;;;12.84;78.78
58622;BME280;44389;51.578;5.456;2023-04-09T09:45:48;102362.88;;;13.13;79.96
58622;BME280;44389;51.578;5.456;2023-04-09T09:48:14;102360.19;;;13.31;77.25
58622;BME280;44389;51.578;5.456;2023-04-09T09:50:40;102353.47;;;13.98;76.53
58622;BME280;44389;51.578;5.456;2023-04-09T09:53:09;102354.59;;;14.51;75.97
58622;BME280;44389;51.578;5.456;2023-04-09T09:55:40;102352.38;;;14.84;70.73
58622;BME280;44389;51.578;5.456;2023-04-09T09:58:16;102351.09;;;15.21;67.86
58622;BME280;44389;51.578;5.456;2023-04-09T10:00:45;102346.38;;;15.35;66.29
58622;BME280;44389;51.578;5.456;2023-04-09T10:03:14;102344.91;;;15.18;65.04
58622;BME280;44389;51.578;5.456;2023-04-09T10:05:40;102346.38;;;14.85;65.94
58622;BME280;44389;51.578;5.456;2023-04-09T10:08:06;102337.22;;;15.46;65.13
58622;BME280;44389;51.578;5.456;2023-04-09T10:10:32;102332.72;;;15.68;61.71
58622;BME280;44389;51.578;5.456;2023-04-09T10:12:57;102335.72;;;15.80;59.10
58622;BME280;44389;51.578;5.456;2023-04-09T10:15:24;102334.78;;;15.25;61.14
58622;BME280;44389;51.578;5.456;2023-04-09T10:17:50;102336.88;;;15.89;59.41
58622;BME280;44389;51.578;5.456;2023-04-09T10:20:20;102325.13;;;16.61;56.35
58622;BME280;44389;51.578;5.456;2023-04-09T10:22:48;102337.50;;;16.68;54.91
58622;BME280;44389;51.578;5.456;2023-04-09T10:25:15;102329.03;;;17.07;56.83
58622;BME280;44389;51.578;5.456;2023-04-09T10:27:42;102322.56;;;17.98;54.22
58622;BME280;44389;51.578;5.456;2023-04-09T10:30:30;102324.31;;;19.29;53.79
58622;BME280;44389;51.578;5.456;2023-04-09T10:32:55;102321.88;;;18.91;47.14
58622;BME280;44389;51.578;5.456;2023-04-09T10:35:24;102317.84;;;19.61;50.29
58622;BME280;44389;51.578;5.456;2023-04-09T10:37:50;102315.22;;;20.20;47.91
58622;BME280;44389;51.578;5.456;2023-04-09T10:40:19;102319.84;;;19.23;43.35
58622;BME280;44389;51.578;5.456;2023-04-09T10:42:46;102308.56;;;18.34;45.04
58622;BME280;44389;51.578;5.456;2023-04-09T10:45:13;102304.19;;;18.33;47.40
58622;BME280;44389;51.578;5.456;2023-04-09T10:47:41;102304.16;;;18.32;48.68
58622;BME280;44389;51.578;5.456;2023-04-09T10:50:21;102301.47;;;18.27;48.07
58622;BME280;44389;51.578;5.456;2023-04-09T10:52:53;102302.09;;;17.40;48.41
58622;BME280;44389;51.578;5.456;2023-04-09T10:55:40;102292.59;;;16.77;50.61
58622;BME280;44389;51.578;5.456;2023-04-09T10:58:06;102299.97;;;16.92;53.07
58622;BME280;44389;51.578;5.456;2023-04-09T11:00:36;102298.16;;;15.43;54.46
58622;BME280;44389;51.578;5.456;2023-04-09T11:05:34;102296.91;;;16.14;55.32
58622;BME280;44389;51.578;5.456;2023-04-09T11:08:07;102288.19;;;16.74;51.86
58622;BME280;44389;51.578;5.456;2023-04-09T11:10:40;102281.06;;;17.33;49.42
58622;BME280;44389;51.578;5.456;2023-04-09T11:13:10;102279.59;;;17.10;47.31
58622;BME280;44389;51.578;5.456;2023-04-09T11:15:35;102278.56;;;16.72;47.79
58622;BME280;44389;51.578;5.456;2023-04-09T11:18:02;102276.44;;;16.57;50.55
58622;BME280;44389;51.578;5.456;2023-04-09T11:20:27;102274.56;;;15.92;50.45
58622;BME280;44389;51.578;5.456;2023-04-09T11:22:55;102274.94;;;16.04;51.56
58622;BME280;44389;51.578;5.456;2023-04-09T11:25:25;102279.88;;;16.56;50.17
58622;BME280;44389;51.578;5.456;2023-04-09T11:27:52;102279.47;;;17.04;48.44
58622;BME280;44389;51.578;5.456;2023-04-09T11:30:18;102273.16;;;16.64;48.56
58622;BME280;44389;51.578;5.456;2023-04-09T11:32:44;102271.31;;;16.60;51.41
58622;BME280;44389;51.578;5.456;2023-04-09T11:35:20;102271.50;;;16.36;53.53
58622;BME280;44389;51.578;5.456;2023-04-09T11:37:46;102266.88;;;16.25;53.86
58622;BME280;44389;51.578;5.456;2023-04-09T11:40:21;102275.72;;;16.02;54.14
58622;BME280;44389;51.578;5.456;2023-04-09T11:42:52;102271.84;;;16.18;53.46
58622;BME280;44389;51.578;5.456;2023-04-09T11:45:20;102261.53;;;16.83;50.82
58622;BME280;44389;51.578;5.456;2023-04-09T11:47:46;102260.91;;;17.64;48.69
58622;BME280;44389;51.578;5.456;2023-04-09T11:50:13;102265.44;;;18.09;46.57
58622;BME280;44389;51.578;5.456;2023-04-09T11:52:38;102252.50;;;17.75;44.76
58622;BME280;44389;51.578;5.456;2023-04-09T11:55:06;102257.25;;;17.55;45.04
58622;BME280;44389;51.578;5.456;2023-04-09T11:57:43;102257.84;;;17.43;46.95
58622;BME280;44389;51.578;5.456;2023-04-09T12:00:10;102260.50;;;17.83;44.59
58622;BME280;44389;51.578;5.456;2023-04-09T12:02:46;102261.41;;;18.26;49.89
58622;BME280;44389;51.578;5.456;2023-04-09T12:05:20;102266.09;;;17.25;44.98
58622;BME280;44389;51.578;5.456;2023-04-09T12:07:46;102258.63;;;17.39;46.52
58622;BME280;44389;51.578;5.456;2023-04-09T12:10:11;102257.63;;;17.34;46.84
58622;BME280;44389;51.578;5.456;2023-04-09T12:12:44;102265.34;;;16.64;47.78
58622;BME280;44389;51.578;5.456;2023-04-09T12:15:21;102261.56;;;16.21;49.52
58622;BME280;44389;51.578;5.456;2023-04-09T12:17:48;102257.56;;;16.03;49.30
58622;BME280;44389;51.578;5.456;2023-04-09T12:20:25;102261.19;;;16.08;51.13
58622;BME280;44389;51.578;5.456;2023-04-09T12:22:51;102252.53;;;15.80;48.20
58622;BME280;44389;51.578;5.456;2023-04-09T12:25:16;102246.72;;;16.82;48.45
58622;BME280;44389;51.578;5.456;2023-04-09T12:27:41;102246.66;;;17.48;45.89
58622;BME280;44389;51.578;5.456;2023-04-09T12:30:07;102249.34;;;17.92;45.40
58622;BME280;44389;51.578;5.456;2023-04-09T12:32:32;102234.38;;;19.79;41.18
58622;BME280;44389;51.578;5.456;2023-04-09T12:34:58;102241.38;;;20.48;38.62
58622;BME280;44389;51.578;5.456;2023-04-09T12:37:23;102241.09;;;21.08;38.30
58622;BME280;44389;51.578;5.456;2023-04-09T12:39:48;102238.41;;;21.01;36.66
58622;BME280;44389;51.578;5.456;2023-04-09T12:42:14;102243.22;;;21.61;34.86
58622;BME280;44389;51.578;5.456;2023-04-09T12:44:40;102242.97;;;21.24;34.13
58622;BME280;44389;51.578;5.456;2023-04-09T12:47:05;102244.84;;;21.48;34.73
58622;BME280;44389;51.578;5.456;2023-04-09T12:49:31;102242.44;;;21.73;34.62
58622;BME280;44389;51.578;5.456;2023-04-09T12:51:57;102243.25;;;21.64;34.54
58622;BME280;44389;51.578;5.456;2023-04-09T12:54:22;102241.91;;;22.62;33.49
58622;BME280;44389;51.578;5.456;2023-04-09T12:56:47;102237.38;;;22.24;34.74
58622;BME280;44389;51.578;5.456;2023-04-09T12:59:14;102237.34;;;20.81;35.36
58622;BME280;44389;51.578;5.456;2023-04-09T13:01:39;102229.16;;;19.78;37.95